Barra de Santa Rosa, Brazil
Current Conditions -  °F | °C
As of 9:00 AM on Sunday 25 Jan 2015 (Local Time) from SBKG Reporting Station
Broken Clouds Broken Clouds  
Wind Chill: 79°   Ceiling: 2000
Heat Index: 81°   Visibility: 6mi
Dew Point: 66°   Wind: 18mph
Humidity: 65%   Direction: 100°E
Pressure: 30"   Gusts: NA
Location:  6.72°S, 36.06°W
Report Text: SBKG 251200Z 10016KT 9999 BKN020 26/19 Q1016
Loading
Personal Weather Stations






























Interactive Weather Map New forecast layout! Learn more

10-Day Weather Forecast

Advertisements
Track Severe Weather on mobile